createdAt,value
2023-03-05T00:00:22.043Z,96346.25
2023-03-05T00:02:48.748Z,96340.25
2023-03-05T00:05:15.425Z,96347.19
2023-03-05T00:07:42.065Z,96348.41
2023-03-05T00:10:09.190Z,96337.13
2023-03-05T00:12:35.896Z,96343.16
2023-03-05T00:15:02.584Z,96335.91
2023-03-05T00:17:29.863Z,96340.22
2023-03-05T00:19:59.065Z,96330.47
2023-03-05T00:22:26.681Z,96333.84
2023-03-05T00:24:53.675Z,96335.97
2023-03-05T00:27:20.419Z,96323.50
2023-03-05T00:29:47.031Z,96329.00
2023-03-05T00:32:13.782Z,96318.78
2023-03-05T00:34:40.423Z,96315.88
2023-03-05T00:37:07.572Z,96304.66
2023-03-05T00:39:34.310Z,96310.56
2023-03-05T00:42:00.943Z,96306.06
2023-03-05T00:44:27.590Z,96305.03
2023-03-05T00:46:54.272Z,96293.44
2023-03-05T00:49:20.933Z,96295.94
2023-03-05T00:51:47.622Z,96291.28
2023-03-05T00:54:14.291Z,96290.19
2023-03-05T00:56:40.926Z,96284.41
2023-03-05T00:59:07.693Z,96282.78
2023-03-05T01:01:34.475Z,96272.84
2023-03-05T01:04:01.490Z,96274.03
2023-03-05T01:06:29.483Z,96271.50
2023-03-05T01:08:56.732Z,96269.72
2023-03-05T01:11:23.407Z,96268.44
2023-03-05T01:13:50.015Z,96268.59
2023-03-05T01:16:16.729Z,96261.44
2023-03-05T01:18:43.612Z,96263.84
2023-03-05T01:21:10.643Z,96259.69
2023-03-05T01:23:37.578Z,96259.56
2023-03-05T01:26:04.710Z,96248.44
2023-03-05T01:28:32.530Z,96250.13
2023-03-05T01:30:59.196Z,96234.72
2023-03-05T01:33:25.899Z,96246.28
2023-03-05T01:35:52.662Z,96237.81
2023-03-05T01:38:19.408Z,96229.22
2023-03-05T01:40:46.101Z,96229.94
2023-03-05T01:43:12.667Z,96224.38
2023-03-05T01:45:59.859Z,96230.81
2023-03-05T01:48:27.338Z,96228.09
2023-03-05T01:50:54.382Z,96226.06
2023-03-05T01:53:21.073Z,96215.03
2023-03-05T01:55:47.663Z,96222.09
2023-03-05T01:58:14.477Z,96216.28
2023-03-05T02:00:50.493Z,96215.78
2023-03-05T02:03:17.362Z,96220.47
2023-03-05T02:05:44.570Z,96217.38
2023-03-05T02:08:15.419Z,96216.97
2023-03-05T02:10:50.853Z,96211.41
2023-03-05T02:13:23.782Z,96209.69
2023-03-05T02:15:52.829Z,96206.75
2023-03-05T02:18:20.958Z,96204.38
2023-03-05T02:20:51.034Z,96194.75
2023-03-05T02:23:19.427Z,96197.91
2023-03-05T02:25:46.064Z,96192.19
2023-03-05T02:28:18.636Z,96182.75
2023-03-05T02:30:45.538Z,96193.19
2023-03-05T02:33:14.940Z,96186.41
2023-03-05T02:35:43.669Z,96178.25
2023-03-05T02:38:11.932Z,96183.75
2023-03-05T02:40:38.588Z,96184.25
2023-03-05T02:43:05.689Z,96182.78
2023-03-05T02:45:32.330Z,96176.59
2023-03-05T02:47:59.050Z,96179.72
2023-03-05T02:50:27.550Z,96182.53
2023-03-05T02:52:54.663Z,96177.28
2023-03-05T02:55:21.342Z,96180.47
2023-03-05T02:57:48.038Z,96178.44
2023-03-05T03:00:15.246Z,96176.66
2023-03-05T03:02:41.964Z,96175.06
2023-03-05T03:05:09.161Z,96175.38
2023-03-05T03:07:36.694Z,96175.75
2023-03-05T03:10:04.695Z,96167.28
2023-03-05T03:12:31.329Z,96163.22
2023-03-05T03:14:57.942Z,96161.63
2023-03-05T03:17:24.684Z,96160.78
2023-03-05T03:19:51.273Z,96155.63
2023-03-05T03:22:17.972Z,96160.09
2023-03-05T03:24:44.674Z,96154.06
2023-03-05T03:27:11.484Z,96159.69
2023-03-05T03:29:38.220Z,96149.63
2023-03-05T03:32:05.194Z,96146.97
2023-03-05T03:34:31.884Z,96149.13
2023-03-05T03:36:58.509Z,96142.84
2023-03-05T03:39:25.579Z,96155.44
2023-03-05T03:41:53.455Z,96141.88
2023-03-05T03:44:21.338Z,96136.16
2023-03-05T03:46:49.600Z,96141.06
2023-03-05T03:49:22.522Z,96136.78
2023-03-05T03:51:50.771Z,96130.34
2023-03-05T03:54:18.939Z,96130.19
2023-03-05T03:56:46.123Z,96132.94
2023-03-05T03:59:13.740Z,96136.38
2023-03-05T04:01:40.426Z,96129.97
2023-03-05T04:04:07.571Z,96137.94
2023-03-05T04:06:34.953Z,96132.81
2023-03-05T04:09:01.616Z,96125.97
2023-03-05T04:11:28.254Z,96125.75
2023-03-05T04:13:54.927Z,96120.38
2023-03-05T04:16:21.643Z,96116.13
2023-03-05T04:18:48.294Z,96115.63
2023-03-05T04:21:15.129Z,96109.06
2023-03-05T04:23:41.769Z,96106.28
2023-03-05T04:26:08.476Z,96113.41
2023-03-05T04:28:35.659Z,96102.44
2023-03-05T04:31:03.046Z,96104.59
2023-03-05T04:33:29.758Z,96104.75
2023-03-05T04:35:56.776Z,96103.91
2023-03-05T04:38:23.657Z,96096.44
2023-03-05T04:40:50.290Z,96096.66
2023-03-05T04:43:16.927Z,96096.31
2023-03-05T04:45:44.086Z,96090.75
2023-03-05T04:48:11.885Z,96099.56
2023-03-05T04:50:38.842Z,96086.47
2023-03-05T04:53:05.938Z,96082.66
2023-03-05T04:55:32.565Z,96083.38
2023-03-05T04:57:59.325Z,96086.28
2023-03-05T05:00:26.100Z,96083.34
2023-03-05T05:02:53.494Z,96083.19
2023-03-05T05:05:23.266Z,96087.81
2023-03-05T05:07:50.330Z,96088.00
2023-03-05T05:10:17.277Z,96081.72
2023-03-05T05:12:43.896Z,96084.47
2023-03-05T05:15:12.150Z,96089.28
2023-03-05T05:17:38.829Z,96078.94
2023-03-05T05:20:06.780Z,96082.88
2023-03-05T05:22:34.142Z,96074.69
2023-03-05T05:25:01.234Z,96079.38
2023-03-05T05:27:27.989Z,96076.81
2023-03-05T05:29:54.738Z,96077.63
2023-03-05T05:32:24.152Z,96078.78
2023-03-05T05:34:55.653Z,96071.66
2023-03-05T05:37:22.809Z,96070.03
2023-03-05T05:39:50.464Z,96067.28
2023-03-05T05:42:24.918Z,96074.53
2023-03-05T05:44:51.578Z,96074.88
2023-03-05T05:47:18.486Z,96078.69
2023-03-05T05:49:45.159Z,96069.19
2023-03-05T05:52:11.853Z,96075.53
2023-03-05T05:54:39.076Z,96073.31
2023-03-05T05:57:06.628Z,96075.78
2023-03-05T05:59:33.446Z,96075.47
2023-03-05T06:02:00.238Z,96075.09
2023-03-05T06:04:26.961Z,96082.72
2023-03-05T06:06:53.579Z,96073.19
2023-03-05T06:09:20.322Z,96086.75
2023-03-05T06:11:47.012Z,96081.69
2023-03-05T06:14:14.440Z,96085.34
2023-03-05T06:16:41.152Z,96083.41
2023-03-05T06:19:11.542Z,96086.91
2023-03-05T06:21:38.424Z,96084.31
2023-03-05T06:24:05.537Z,96084.38
2023-03-05T06:26:33.145Z,96092.59
2023-03-05T06:28:59.805Z,96094.00
2023-03-05T06:31:28.744Z,96088.72
2023-03-05T06:34:03.313Z,96089.81
2023-03-05T06:36:30.702Z,96098.69
2023-03-05T06:38:58.134Z,96093.16
2023-03-05T06:41:29.375Z,96084.41
2023-03-05T06:43:56.542Z,96097.56
2023-03-05T06:46:28.970Z,96090.56
2023-03-05T06:48:57.909Z,96095.19
2023-03-05T06:51:32.893Z,96092.13
2023-03-05T06:54:02.440Z,96098.47
2023-03-05T06:56:29.639Z,96089.72
2023-03-05T06:58:56.292Z,96093.22
2023-03-05T07:01:23.895Z,96091.66
2023-03-05T07:03:52.957Z,96094.22
2023-03-05T07:06:21.048Z,96093.72
2023-03-05T07:08:48.671Z,96097.44
2023-03-05T07:11:20.625Z,96085.38
2023-03-05T07:13:48.195Z,96084.81
2023-03-05T07:16:24.428Z,96087.41
2023-03-05T07:18:51.692Z,96085.34
2023-03-05T07:21:21.375Z,96084.25
2023-03-05T07:23:48.568Z,96084.44
2023-03-05T07:26:15.738Z,96077.28
2023-03-05T07:28:42.686Z,96085.84
2023-03-05T07:31:13.970Z,96080.50
2023-03-05T07:33:40.992Z,96078.63
2023-03-05T07:36:08.991Z,96081.94
2023-03-05T07:38:35.738Z,96078.66
2023-03-05T07:41:04.554Z,96083.00
2023-03-05T07:43:31.222Z,96086.19
2023-03-05T07:45:57.971Z,96085.22
2023-03-05T07:48:25.092Z,96078.50
2023-03-05T07:51:00.585Z,96084.53
2023-03-05T07:53:27.218Z,96086.34
2023-03-05T07:55:53.866Z,96087.03
2023-03-05T07:58:20.531Z,96081.38
2023-03-05T08:00:47.147Z,96085.84
2023-03-05T08:03:13.811Z,96082.78
2023-03-05T08:05:42.097Z,96082.91
2023-03-05T08:08:09.719Z,96083.50
2023-03-05T08:10:37.313Z,96083.06
2023-03-05T08:13:04.082Z,96084.72
2023-03-05T08:15:31.779Z,96081.34
2023-03-05T08:17:59.144Z,96073.72
2023-03-05T08:20:25.853Z,96070.13
2023-03-05T08:22:52.528Z,96071.44
2023-03-05T08:25:19.210Z,96075.19
2023-03-05T08:27:47.211Z,96070.59
2023-03-05T08:30:17.016Z,96068.31
2023-03-05T08:32:43.696Z,96068.44
2023-03-05T08:35:10.628Z,96067.75
2023-03-05T08:37:37.448Z,96064.34
2023-03-05T08:40:05.230Z,96061.66
2023-03-05T08:42:31.958Z,96069.84
2023-03-05T08:44:58.649Z,96064.91
2023-03-05T08:47:26.744Z,96063.16
2023-03-05T08:49:57.332Z,96071.75
2023-03-05T08:52:24.510Z,96064.00
2023-03-05T08:54:51.148Z,96061.47
2023-03-05T08:57:17.830Z,96059.06
2023-03-05T08:59:44.450Z,96057.75
2023-03-05T09:02:13.006Z,96059.66
2023-03-05T09:04:39.989Z,96052.94
2023-03-05T09:07:06.693Z,96050.78
2023-03-05T09:09:34.077Z,96052.53
2023-03-05T09:12:01.404Z,96051.28
2023-03-05T09:14:28.746Z,96045.13
2023-03-05T09:16:56.410Z,96046.53
2023-03-05T09:19:23.660Z,96039.38
2023-03-05T09:21:50.350Z,96049.38
2023-03-05T09:24:17.004Z,96043.13
2023-03-05T09:26:44.235Z,96040.94
2023-03-05T09:29:11.009Z,96035.97
2023-03-05T09:31:38.020Z,96036.34
2023-03-05T09:34:05.797Z,96034.00
2023-03-05T09:36:33.036Z,96031.06
2023-03-05T09:38:59.824Z,96031.91
2023-03-05T09:41:51.208Z,96036.50
2023-03-05T09:44:41.712Z,96026.88
2023-03-05T09:47:25.616Z,96027.38
2023-03-05T09:50:01.807Z,96033.28
2023-03-05T09:52:45.687Z,96025.25
2023-03-05T09:55:51.595Z,96030.56
2023-03-05T09:58:25.976Z,96019.22
2023-03-05T10:00:59.902Z,96021.00
2023-03-05T10:03:45.084Z,96019.34
2023-03-05T10:06:21.911Z,96009.09
2023-03-05T10:08:56.998Z,96008.66
2023-03-05T10:11:55.365Z,96008.09
2023-03-05T10:14:35.679Z,96006.94
2023-03-05T10:17:20.286Z,96001.38
2023-03-05T10:20:19.807Z,96004.38
2023-03-05T10:23:04.876Z,95993.56
2023-03-05T10:25:46.766Z,95987.13
2023-03-05T10:28:21.645Z,95982.59
2023-03-05T10:31:17.139Z,95988.16
2023-03-05T10:33:58.049Z,95978.81
2023-03-05T10:36:29.399Z,95971.03
2023-03-05T10:39:01.960Z,95976.44
2023-03-05T10:41:34.256Z,95973.44
2023-03-05T10:44:09.800Z,95968.56
2023-03-05T10:46:39.823Z,95965.72
2023-03-05T10:49:20.028Z,95972.69
2023-03-05T10:52:24.749Z,95965.41
2023-03-05T10:54:51.462Z,95953.59
2023-03-05T10:57:21.206Z,95962.47
2023-03-05T11:00:01.177Z,95945.91
2023-03-05T11:02:27.973Z,95942.50
2023-03-05T11:04:54.914Z,95941.81
2023-03-05T11:07:22.793Z,95940.78
2023-03-05T11:10:15.225Z,95930.25
2023-03-05T11:12:42.189Z,95931.38
2023-03-05T11:15:15.012Z,95928.78
2023-03-05T11:17:47.905Z,95920.88
2023-03-05T11:20:31.837Z,95925.03
2023-03-05T11:23:24.205Z,95909.28
2023-03-05T11:26:01.615Z,95907.72
2023-03-05T11:28:33.471Z,95910.75
2023-03-05T11:31:02.829Z,95904.88
2023-03-05T11:33:30.766Z,95901.22
2023-03-05T11:36:19.297Z,95903.25
2023-03-05T11:38:55.297Z,95892.09
2023-03-05T11:41:29.792Z,95889.38
2023-03-05T11:43:58.933Z,95887.81
2023-03-05T11:46:25.929Z,95880.31
2023-03-05T11:48:54.588Z,95881.41
2023-03-05T11:51:28.119Z,95875.06
2023-03-05T11:53:59.486Z,95870.38
2023-03-05T11:56:36.059Z,95869.50
2023-03-05T11:59:12.225Z,95863.84
2023-03-05T12:01:50.099Z,95853.84
2023-03-05T12:04:18.609Z,95853.53
2023-03-05T12:07:00.608Z,95856.72
2023-03-05T12:09:45.791Z,95847.97
2023-03-05T12:12:36.136Z,95843.53
2023-03-05T12:15:28.520Z,95848.06
2023-03-05T12:18:02.943Z,95846.75
2023-03-05T12:20:54.092Z,95833.97
2023-03-05T12:23:22.269Z,95836.66
2023-03-05T12:25:57.919Z,95825.19
2023-03-05T12:28:36.343Z,95824.13
2023-03-05T12:31:27.191Z,95814.28
2023-03-05T12:33:54.219Z,95811.34
2023-03-05T12:36:20.789Z,95805.75
2023-03-05T12:38:56.682Z,95803.34
2023-03-05T12:41:23.271Z,95803.31
2023-03-05T12:44:05.056Z,95786.78
2023-03-05T12:46:35.844Z,95784.69
2023-03-05T12:49:27.322Z,95787.03
2023-03-05T12:51:56.295Z,95776.84
2023-03-05T12:54:29.702Z,95785.16
2023-03-05T12:56:59.058Z,95780.47
2023-03-05T12:59:36.250Z,95771.38
2023-03-05T13:02:16.714Z,95772.16
2023-03-05T13:04:46.174Z,95773.50
2023-03-05T13:07:17.878Z,95773.50
2023-03-05T13:09:58.994Z,95766.63
2023-03-05T13:12:28.915Z,95764.53
2023-03-05T13:14:55.457Z,95759.16
2023-03-05T13:17:36.246Z,95756.25
2023-03-05T13:20:25.209Z,95757.03
2023-03-05T13:23:24.142Z,95756.50
2023-03-05T13:26:11.095Z,95750.34
2023-03-05T13:28:39.395Z,95750.38
2023-03-05T13:31:18.130Z,95742.91
2023-03-05T13:33:57.615Z,95734.44
2023-03-05T13:36:26.662Z,95737.38
2023-03-05T13:38:53.821Z,95750.13
2023-03-05T13:41:23.619Z,95737.88
2023-03-05T13:43:54.770Z,95732.75
2023-03-05T13:46:34.534Z,95739.97
2023-03-05T13:49:18.218Z,95730.34
2023-03-05T13:51:50.532Z,95736.78
2023-03-05T13:54:17.986Z,95736.75
2023-03-05T13:57:02.315Z,95730.41
2023-03-05T13:59:39.413Z,95727.47
2023-03-05T14:02:19.711Z,95720.06
2023-03-05T14:04:47.656Z,95720.56
2023-03-05T14:07:20.318Z,95715.94
2023-03-05T14:09:52.304Z,95704.72
2023-03-05T14:12:39.185Z,95700.00
2023-03-05T14:15:26.082Z,95706.91
2023-03-05T14:18:07.281Z,95704.81
2023-03-05T14:20:33.984Z,95697.28
2023-03-05T14:23:02.199Z,95704.16
2023-03-05T14:25:37.649Z,95700.97
2023-03-05T14:28:29.268Z,95697.50
2023-03-05T14:30:57.336Z,95699.72
2023-03-05T14:33:30.192Z,95695.19
2023-03-05T14:35:58.427Z,95692.53
2023-03-05T14:38:28.915Z,95690.84
2023-03-05T14:40:55.880Z,95685.31
2023-03-05T14:43:22.582Z,95693.59
2023-03-05T14:45:49.654Z,95693.06
2023-03-05T14:48:18.934Z,95687.25
2023-03-05T14:50:47.415Z,95678.19
2023-03-05T14:53:17.329Z,95681.84
2023-03-05T14:55:48.865Z,95677.63
2023-03-05T14:58:18.659Z,95677.09
2023-03-05T15:00:45.324Z,95681.38
2023-03-05T15:03:13.131Z,95689.03
2023-03-05T15:05:40.625Z,95680.56
2023-03-05T15:08:23.471Z,95679.19
2023-03-05T15:10:50.733Z,95673.84
2023-03-05T15:13:17.805Z,95676.00
2023-03-05T15:15:46.194Z,95664.22
2023-03-05T15:18:14.299Z,95670.84
2023-03-05T15:20:40.979Z,95666.03
2023-03-05T15:23:08.116Z,95663.22
2023-03-05T15:25:35.329Z,95656.75
2023-03-05T15:28:02.334Z,95656.88
2023-03-05T15:30:37.300Z,95655.13
2023-03-05T15:33:09.986Z,95659.00
2023-03-05T15:35:37.544Z,95655.31
2023-03-05T15:38:04.530Z,95650.00
2023-03-05T15:40:31.480Z,95646.94
2023-03-05T15:42:59.323Z,95646.88
2023-03-05T15:45:26.449Z,95647.09
2023-03-05T15:47:53.748Z,95648.31
2023-03-05T15:50:21.813Z,95648.81
2023-03-05T15:52:49.605Z,95645.66
2023-03-05T15:55:18.340Z,95639.22
2023-03-05T15:57:50.621Z,95645.34
2023-03-05T16:00:26.089Z,95645.19
2023-03-05T16:02:52.775Z,95641.97
2023-03-05T16:05:19.502Z,95644.56
2023-03-05T16:07:51.839Z,95642.09
2023-03-05T16:10:22.575Z,95647.59
2023-03-05T16:12:54.017Z,95639.88
2023-03-05T16:15:21.648Z,95649.66
2023-03-05T16:17:53.018Z,95644.28
2023-03-05T16:20:20.669Z,95645.94
2023-03-05T16:22:47.677Z,95647.78
2023-03-05T16:25:14.431Z,95642.16
2023-03-05T16:27:41.067Z,95638.19
2023-03-05T16:30:09.122Z,95642.28
2023-03-05T16:32:38.617Z,95646.59
2023-03-05T16:35:05.922Z,95651.97
2023-03-05T16:37:32.610Z,95638.91
2023-03-05T16:39:59.672Z,95642.94
2023-03-05T16:42:26.402Z,95637.25
2023-03-05T16:44:53.026Z,95639.78
2023-03-05T16:47:19.631Z,95636.88
2023-03-05T16:49:46.268Z,95642.75
2023-03-05T16:52:18.767Z,95638.78
2023-03-05T16:54:47.068Z,95641.38
2023-03-05T16:57:13.751Z,95632.56
2023-03-05T16:59:41.009Z,95645.56
2023-03-05T17:02:08.102Z,95634.31
2023-03-05T17:04:34.986Z,95630.50
2023-03-05T17:07:03.508Z,95642.78
2023-03-05T17:09:30.510Z,95635.38
2023-03-05T17:11:57.274Z,95638.31
2023-03-05T17:14:24.097Z,95643.38
2023-03-05T17:16:50.805Z,95643.34
2023-03-05T17:19:17.912Z,95643.09
2023-03-05T17:21:45.031Z,95647.03
2023-03-05T17:24:12.109Z,95647.88
2023-03-05T17:26:38.741Z,95646.25
2023-03-05T17:29:06.130Z,95640.91
2023-03-05T17:31:33.562Z,95650.53
2023-03-05T17:34:00.611Z,95647.81
2023-03-05T17:36:27.259Z,95650.03
2023-03-05T17:38:54.177Z,95648.22
2023-03-05T17:41:20.978Z,95647.72
2023-03-05T17:43:48.024Z,95652.72
2023-03-05T17:46:15.444Z,95651.09
2023-03-05T17:48:42.260Z,95648.25
2023-03-05T17:51:12.212Z,95642.66
2023-03-05T17:53:40.398Z,95651.72
2023-03-05T17:56:09.508Z,95649.31
2023-03-05T17:58:37.668Z,95644.50
2023-03-05T18:01:05.689Z,95646.63
2023-03-05T18:03:33.167Z,95652.16
2023-03-05T18:05:59.774Z,95650.53
2023-03-05T18:08:26.401Z,95647.44
2023-03-05T18:10:54.222Z,95647.47
2023-03-05T18:13:21.095Z,95646.34
2023-03-05T18:15:47.884Z,95646.88
2023-03-05T18:18:18.326Z,95641.00
2023-03-05T18:20:45.624Z,95643.06
2023-03-05T18:23:12.451Z,95639.34
2023-03-05T18:25:39.069Z,95644.06
2023-03-05T18:28:15.681Z,95640.09
2023-03-05T18:30:43.949Z,95631.19
2023-03-05T18:33:22.701Z,95633.59
2023-03-05T18:35:52.312Z,95631.44
2023-03-05T18:38:23.693Z,95641.28
2023-03-05T18:40:51.495Z,95635.13
2023-03-05T18:43:20.705Z,95636.00
2023-03-05T18:45:53.221Z,95637.97
2023-03-05T18:48:20.463Z,95639.03
2023-03-05T18:50:50.903Z,95638.25
2023-03-05T18:53:17.575Z,95636.13
2023-03-05T18:55:45.056Z,95639.03
2023-03-05T18:58:15.753Z,95636.38
2023-03-05T19:00:44.940Z,95631.59
2023-03-05T19:03:11.733Z,95638.53
2023-03-05T19:05:39.834Z,95633.47
2023-03-05T19:08:07.865Z,95631.06
2023-03-05T19:10:34.792Z,95631.88
2023-03-05T19:13:35.426Z,95627.88
2023-03-05T19:16:19.278Z,95630.53
2023-03-05T19:19:15.453Z,95629.47
2023-03-05T19:21:44.595Z,95632.13
2023-03-05T19:24:11.764Z,95635.34
2023-03-05T19:26:39.017Z,95626.03
2023-03-05T19:29:07.268Z,95632.41
2023-03-05T19:31:34.442Z,95637.19
2023-03-05T19:34:01.823Z,95630.00
2023-03-05T19:36:28.465Z,95626.28
2023-03-05T19:38:55.366Z,95627.09
2023-03-05T19:41:22.075Z,95625.50
2023-03-05T19:43:49.979Z,95617.25
2023-03-05T19:46:17.626Z,95616.72
2023-03-05T19:48:44.630Z,95619.63
2023-03-05T19:51:17.159Z,95613.25
2023-03-05T19:53:44.064Z,95620.44
2023-03-05T19:56:11.203Z,95607.63
2023-03-05T19:58:37.973Z,95606.56
2023-03-05T20:01:31.917Z,95609.19
2023-03-05T20:04:00.279Z,95611.28
2023-03-05T20:06:29.371Z,95604.69
2023-03-05T20:08:56.794Z,95603.34
2023-03-05T20:11:24.339Z,95606.53
2023-03-05T20:13:52.072Z,95606.00
2023-03-05T20:16:25.297Z,95603.81
2023-03-05T20:18:54.901Z,95602.25
2023-03-05T20:21:36.554Z,95596.88
2023-03-05T20:24:09.450Z,95606.53
2023-03-05T20:26:36.870Z,95595.78
2023-03-05T20:29:04.985Z,95591.81
2023-03-05T20:31:35.310Z,95594.81
2023-03-05T20:34:02.023Z,95590.78
2023-03-05T20:36:28.651Z,95590.47
2023-03-05T20:38:55.912Z,95583.78
2023-03-05T20:41:22.995Z,95588.31
2023-03-05T20:43:51.630Z,95588.28
2023-03-05T20:46:26.864Z,95585.13
2023-03-05T20:48:56.579Z,95583.84
2023-03-05T20:51:35.912Z,95580.88
2023-03-05T20:54:09.021Z,95579.28
2023-03-05T20:56:36.352Z,95580.09
2023-03-05T20:59:06.312Z,95581.41
2023-03-05T21:01:35.442Z,95578.22
2023-03-05T21:04:03.407Z,95579.31
2023-03-05T21:06:32.265Z,95574.72
2023-03-05T21:08:59.449Z,95571.56
2023-03-05T21:11:26.428Z,95572.91
2023-03-05T21:13:53.141Z,95566.47
2023-03-05T21:16:22.622Z,95567.31
2023-03-05T21:18:51.095Z,95566.78
2023-03-05T21:21:18.222Z,95564.13
2023-03-05T21:23:44.959Z,95553.75
2023-03-05T21:26:13.267Z,95560.16
2023-03-05T21:28:40.601Z,95554.78
2023-03-05T21:31:10.591Z,95551.63
2023-03-05T21:33:37.502Z,95551.59
2023-03-05T21:36:04.639Z,95545.84
2023-03-05T21:38:34.025Z,95544.00
2023-03-05T21:41:00.969Z,95536.75
2023-03-05T21:43:28.644Z,95538.38
2023-03-05T21:45:57.195Z,95532.47
2023-03-05T21:48:25.248Z,95522.34
2023-03-05T21:50:52.746Z,95529.25
2023-03-05T21:53:20.080Z,95526.03
2023-03-05T21:56:02.844Z,95518.16
2023-03-05T21:58:33.780Z,95520.25
2023-03-05T22:01:01.002Z,95514.41
2023-03-05T22:03:28.621Z,95512.31
2023-03-05T22:05:55.891Z,95514.38
2023-03-05T22:08:23.155Z,95504.59
2023-03-05T22:10:50.001Z,95507.59
2023-03-05T22:13:17.971Z,95504.88
2023-03-05T22:15:46.063Z,95503.25
2023-03-05T22:18:14.422Z,95506.22
2023-03-05T22:20:41.657Z,95509.16
2023-03-05T22:23:08.562Z,95503.91
2023-03-05T22:25:35.308Z,95500.63
2023-03-05T22:28:02.577Z,95503.81
2023-03-05T22:30:29.278Z,95501.22
2023-03-05T22:32:56.058Z,95492.66
2023-03-05T22:35:22.826Z,95489.53
2023-03-05T22:37:49.459Z,95494.13
2023-03-05T22:40:18.998Z,95486.84
2023-03-05T22:42:46.311Z,95485.53
2023-03-05T22:45:15.558Z,95478.56
2023-03-05T22:47:42.176Z,95483.13
2023-03-05T22:50:09.609Z,95476.69
2023-03-05T22:52:36.232Z,95469.50
2023-03-05T22:55:04.657Z,95471.38
2023-03-05T22:57:33.273Z,95466.06
2023-03-05T22:59:59.889Z,95463.94
2023-03-05T23:02:26.534Z,95469.84
2023-03-05T23:04:55.020Z,95469.06
2023-03-05T23:07:31.677Z,95470.31
2023-03-05T23:10:04.981Z,95461.53
2023-03-05T23:12:33.970Z,95459.69
2023-03-05T23:15:02.384Z,95464.53
2023-03-05T23:17:29.325Z,95468.75
2023-03-05T23:19:55.955Z,95461.84
2023-03-05T23:22:22.600Z,95452.25
2023-03-05T23:24:49.227Z,95452.28
2023-03-05T23:27:17.952Z,95453.94
2023-03-05T23:30:06.138Z,95457.94
2023-03-05T23:32:32.888Z,95450.53
2023-03-05T23:34:59.587Z,95444.34
2023-03-05T23:37:26.227Z,95450.72
2023-03-05T23:39:52.808Z,95439.75
2023-03-05T23:42:19.389Z,95440.63
2023-03-05T23:44:46.031Z,95444.34
2023-03-05T23:47:12.782Z,95440.66
2023-03-05T23:49:39.460Z,95442.81
2023-03-05T23:52:06.364Z,95440.88
2023-03-05T23:54:33.007Z,95438.25
2023-03-05T23:56:59.626Z,95435.81
2023-03-05T23:59:26.274Z,95436.38
